createdAt,value
2017-06-20T00:10:24.599Z,92.70
2017-06-20T00:12:58.491Z,92.20
2017-06-20T00:15:28.529Z,91.40
2017-06-20T00:17:58.376Z,91.60
2017-06-20T00:20:29.223Z,91.70
2017-06-20T00:22:59.872Z,90.90
2017-06-20T00:25:31.827Z,90.80
2017-06-20T00:28:01.615Z,90.80
2017-06-20T00:30:31.415Z,91.00
2017-06-20T00:33:01.264Z,91.00
2017-06-20T00:35:34.791Z,90.90
2017-06-20T00:38:05.571Z,90.80
2017-06-20T00:40:37.465Z,91.00
2017-06-20T00:43:09.579Z,91.20
2017-06-20T00:45:39.410Z,91.60
2017-06-20T00:48:13.537Z,91.70
2017-06-20T00:50:44.631Z,92.10
2017-06-20T00:53:16.556Z,91.70
2017-06-20T00:55:49.472Z,91.60
2017-06-20T00:58:20.279Z,91.60
2017-06-20T01:00:50.088Z,91.90
2017-06-20T01:03:23.039Z,91.90
2017-06-20T01:05:54.847Z,91.60
2017-06-20T01:08:27.728Z,92.10
2017-06-20T01:11:03.682Z,91.90
2017-06-20T01:13:38.695Z,92.20
2017-06-20T01:16:11.264Z,92.40
2017-06-20T01:18:46.223Z,92.80
2017-06-20T01:21:19.062Z,92.80
2017-06-20T01:23:54.019Z,92.60
2017-06-20T01:32:21.108Z,93.80
2017-06-20T01:37:59.508Z,93.40
2017-06-20T01:40:47.123Z,94.30
2017-06-20T01:46:23.004Z,94.90
2017-06-20T02:00:23.054Z,94.60
2017-06-20T02:11:35.171Z,95.60
2017-06-20T02:14:23.059Z,95.70
2017-06-20T02:28:27.450Z,95.90
2017-06-20T02:36:56.288Z,96.20
2017-06-20T02:42:31.295Z,96.10
2017-06-20T02:45:21.938Z,96.50
2017-06-20T02:56:38.003Z,96.80
2017-06-20T03:10:38.897Z,97.30
2017-06-20T03:24:42.492Z,97.80
2017-06-20T03:33:11.055Z,98.00
2017-06-20T03:38:48.464Z,97.90
2017-06-20T03:41:34.199Z,97.90
2017-06-20T03:49:56.259Z,97.70
2017-06-20T04:01:11.224Z,97.80
2017-06-20T04:15:16.855Z,96.80
2017-06-20T04:20:59.103Z,96.50
2017-06-20T04:29:22.293Z,97.10
2017-06-20T04:57:24.007Z,94.80
2017-06-20T05:25:40.651Z,93.20
2017-06-20T05:28:17.555Z,93.40
2017-06-20T05:33:43.175Z,93.10
2017-06-20T05:36:15.709Z,93.20
2017-06-20T05:38:46.431Z,92.80
2017-06-20T05:41:16.555Z,93.50
2017-06-20T05:43:50.483Z,92.20
2017-06-20T05:46:22.224Z,92.30
2017-06-20T05:48:52.051Z,92.20
2017-06-20T05:51:25.351Z,91.70
2017-06-20T05:53:56.244Z,91.90
2017-06-20T05:56:26.134Z,91.90
2017-06-20T05:59:00.029Z,90.60
2017-06-20T06:01:30.956Z,90.20
2017-06-20T06:04:00.798Z,87.20
2017-06-20T06:06:32.871Z,85.50
2017-06-20T06:09:10.831Z,86.60
2017-06-20T06:11:54.511Z,87.10
2017-06-20T06:17:15.862Z,87.50
2017-06-20T06:19:47.804Z,88.00
2017-06-20T06:33:43.467Z,81.70
2017-06-20T06:36:31.188Z,83.60
2017-06-20T06:39:22.895Z,78.70
2017-06-20T06:44:51.307Z,78.00
2017-06-20T06:55:58.139Z,58.20
2017-06-20T07:01:23.313Z,53.30
2017-06-20T07:03:57.192Z,53.20
2017-06-20T07:09:31.771Z,49.70
2017-06-20T07:12:19.186Z,49.70
2017-06-20T07:17:50.758Z,43.30
2017-06-20T07:23:11.756Z,41.50
2017-06-20T07:31:35.039Z,38.20
2017-06-20T07:34:19.695Z,39.30
2017-06-20T07:45:28.885Z,37.20
2017-06-20T07:54:00.795Z,33.80
2017-06-20T07:56:42.866Z,34.90
2017-06-20T07:59:30.515Z,32.90
2017-06-20T08:10:43.312Z,32.10
2017-06-20T08:24:50.723Z,33.60
2017-06-20T08:38:57.767Z,33.60
2017-06-20T08:41:36.245Z,34.60
2017-06-20T08:52:47.776Z,34.10
2017-06-20T09:06:50.996Z,33.90
2017-06-20T09:09:27.824Z,34.30
2017-06-20T09:20:27.591Z,34.20
2017-06-20T09:23:10.920Z,35.10
2017-06-20T09:31:24.179Z,34.50
2017-06-20T09:37:00.058Z,35.10
2017-06-20T09:39:50.940Z,35.80
2017-06-20T09:48:16.407Z,35.80
2017-06-20T09:51:04.080Z,34.90
2017-06-20T09:59:22.611Z,34.00
2017-06-20T10:02:01.071Z,33.90
2017-06-20T10:04:50.964Z,35.20
2017-06-20T10:07:29.976Z,34.40
2017-06-20T10:13:11.027Z,36.20
2017-06-20T10:15:54.483Z,36.10
2017-06-20T10:21:23.119Z,38.00
2017-06-20T10:26:55.284Z,35.90
2017-06-20T10:32:18.655Z,36.40
2017-06-20T10:40:34.760Z,36.10
2017-06-20T10:43:06.668Z,34.40
2017-06-20T10:48:40.856Z,33.20
2017-06-20T10:51:25.103Z,33.10
2017-06-20T10:53:58.252Z,33.60
2017-06-20T11:05:15.891Z,34.40
2017-06-20T11:07:53.935Z,35.80
2017-06-20T11:10:27.549Z,38.50
2017-06-20T11:21:34.908Z,41.20
2017-06-20T11:24:07.771Z,42.00
2017-06-20T11:26:45.740Z,38.40
2017-06-20T11:29:35.508Z,38.40
2017-06-20T11:32:21.289Z,39.50
2017-06-20T11:34:56.084Z,37.70
2017-06-20T11:37:43.786Z,35.70
2017-06-20T11:40:21.110Z,36.20
2017-06-20T11:45:51.552Z,35.80
2017-06-20T11:59:59.259Z,32.70
2017-06-20T12:02:31.419Z,32.20
2017-06-20T12:05:08.455Z,32.40
2017-06-20T12:07:47.409Z,30.80
2017-06-20T12:21:52.526Z,36.30
2017-06-20T12:30:05.531Z,31.90
2017-06-20T12:32:38.432Z,31.90
2017-06-20T12:35:09.305Z,31.70
2017-06-20T12:37:40.691Z,31.70
2017-06-20T12:40:14.047Z,31.20
2017-06-20T12:42:44.921Z,32.10
2017-06-20T12:45:14.888Z,31.30
2017-06-20T12:47:45.824Z,31.20
2017-06-20T12:50:16.775Z,29.40
2017-06-20T12:52:48.950Z,28.90
2017-06-20T12:55:20.796Z,27.70
2017-06-20T12:57:52.705Z,26.10
2017-06-20T13:00:24.584Z,26.00
2017-06-20T13:02:57.244Z,27.80
2017-06-20T13:05:28.444Z,27.80
2017-06-20T13:08:03.344Z,26.30
2017-06-20T13:10:35.208Z,26.70
2017-06-20T13:13:07.096Z,25.10
2017-06-20T13:15:39.022Z,24.90
2017-06-20T13:18:10.905Z,26.60
2017-06-20T13:20:44.776Z,26.60
2017-06-20T13:23:17.479Z,27.20
2017-06-20T13:25:49.295Z,27.20
2017-06-20T13:28:20.432Z,28.20
2017-06-20T13:30:51.868Z,26.90
2017-06-20T13:33:32.124Z,26.90
2017-06-20T13:36:05.085Z,27.10
2017-06-20T13:38:38.835Z,27.30
2017-06-20T13:41:09.735Z,26.20
2017-06-20T13:43:42.681Z,25.60
2017-06-20T13:46:12.602Z,26.60
2017-06-20T13:48:43.691Z,29.40
2017-06-20T13:51:16.545Z,30.50
2017-06-20T13:53:46.589Z,29.10
2017-06-20T13:56:18.355Z,27.70
2017-06-20T13:58:48.482Z,26.90
2017-06-20T14:01:19.335Z,26.40
2017-06-20T14:03:49.372Z,27.10
2017-06-20T14:06:20.563Z,27.10
2017-06-20T14:08:52.524Z,27.00
2017-06-20T14:11:26.300Z,26.90
2017-06-20T14:13:56.137Z,25.90
2017-06-20T14:16:26.165Z,25.90
2017-06-20T14:18:58.936Z,26.80
2017-06-20T14:21:29.792Z,27.80
2017-06-20T14:24:10.295Z,27.40
2017-06-20T14:26:40.188Z,27.50
2017-06-20T14:29:15.007Z,27.40
2017-06-20T14:31:44.809Z,26.40
2017-06-20T14:34:15.626Z,26.30
2017-06-20T14:36:46.403Z,25.70
2017-06-20T14:39:20.477Z,26.40
2017-06-20T14:42:26.677Z,26.60
2017-06-20T14:44:58.577Z,27.10
2017-06-20T14:47:29.424Z,27.00
2017-06-20T14:49:59.531Z,25.60
2017-06-20T14:52:30.380Z,25.50
2017-06-20T14:55:02.186Z,25.90
2017-06-20T14:57:32.977Z,26.80
2017-06-20T15:00:03.346Z,27.50
2017-06-20T15:02:33.079Z,27.90
2017-06-20T15:05:03.853Z,28.20
2017-06-20T15:07:33.635Z,28.20
2017-06-20T15:10:05.415Z,28.20
2017-06-20T15:12:37.400Z,28.60
2017-06-20T15:15:07.212Z,30.00
2017-06-20T15:17:38.052Z,32.70
2017-06-20T15:20:07.834Z,33.40
2017-06-20T15:22:37.870Z,33.50
2017-06-20T15:25:09.919Z,31.60
2017-06-20T15:27:39.774Z,30.00
2017-06-20T15:30:09.719Z,30.20
2017-06-20T15:32:42.659Z,31.00
2017-06-20T15:35:13.715Z,31.90
2017-06-20T15:37:44.787Z,31.50
2017-06-20T15:40:15.895Z,30.70
2017-06-20T15:42:46.803Z,33.60
2017-06-20T15:45:17.671Z,36.00
2017-06-20T15:47:48.504Z,35.80
2017-06-20T15:50:20.380Z,35.60
2017-06-20T15:52:54.192Z,34.90
2017-06-20T15:55:24.239Z,35.00
2017-06-20T15:57:54.020Z,35.50
2017-06-20T16:00:23.807Z,35.50
2017-06-20T16:02:55.847Z,36.80
2017-06-20T16:05:29.609Z,37.40
2017-06-20T16:08:00.463Z,38.30
2017-06-20T16:10:31.592Z,38.90
2017-06-20T16:13:01.323Z,39.60
2017-06-20T16:15:31.124Z,39.80
2017-06-20T16:18:00.991Z,40.90
2017-06-20T16:20:30.988Z,41.50
2017-06-20T16:23:00.857Z,42.00
2017-06-20T16:25:31.660Z,42.50
2017-06-20T16:28:04.798Z,42.00
2017-06-20T16:30:36.962Z,42.10
2017-06-20T16:33:08.720Z,42.20
2017-06-20T16:35:42.559Z,42.40
2017-06-20T16:38:15.364Z,42.30
2017-06-20T16:40:45.416Z,42.60
2017-06-20T16:43:16.357Z,43.20
2017-06-20T16:45:47.136Z,43.40
2017-06-20T16:48:17.916Z,43.40
2017-06-20T16:50:49.977Z,44.10
2017-06-20T16:53:20.014Z,42.80
2017-06-20T16:55:49.884Z,43.10
2017-06-20T16:58:23.682Z,43.40
2017-06-20T17:00:57.434Z,43.80
2017-06-20T17:03:28.178Z,43.30
2017-06-20T17:05:58.939Z,44.20
2017-06-20T17:08:29.992Z,44.10
2017-06-20T17:11:01.959Z,44.50
2017-06-20T17:13:32.750Z,45.10
2017-06-20T17:16:02.821Z,45.70
2017-06-20T17:18:35.637Z,46.20
2017-06-20T17:21:09.433Z,46.70
2017-06-20T17:23:39.243Z,46.90
2017-06-20T17:26:09.258Z,47.40
2017-06-20T17:28:40.178Z,47.30
2017-06-20T17:31:10.100Z,49.00
2017-06-20T17:33:40.929Z,48.90
2017-06-20T17:36:11.896Z,48.50
2017-06-20T17:38:41.699Z,48.30
2017-06-20T17:41:12.502Z,49.10
2017-06-20T17:43:42.295Z,49.30
2017-06-20T17:46:13.486Z,48.90
2017-06-20T17:48:44.294Z,48.70
2017-06-20T17:51:16.236Z,48.90
2017-06-20T17:53:48.035Z,49.40
2017-06-20T17:56:20.881Z,49.70
2017-06-20T17:58:51.766Z,50.10
2017-06-20T18:01:24.583Z,50.30
2017-06-20T18:03:57.380Z,51.20
2017-06-20T18:06:27.399Z,51.20
2017-06-20T18:08:57.473Z,52.30
2017-06-20T18:11:28.244Z,52.70
2017-06-20T18:14:04.104Z,52.90
2017-06-20T18:16:39.468Z,53.80
2017-06-20T18:19:11.290Z,53.70
2017-06-20T18:21:41.180Z,54.30
2017-06-20T18:24:12.000Z,55.00
2017-06-20T18:26:43.022Z,55.60
2017-06-20T18:32:12.619Z,56.40
2017-06-20T18:34:44.685Z,57.20
2017-06-20T18:37:19.587Z,57.50
2017-06-20T18:42:43.509Z,58.90
2017-06-20T18:45:27.861Z,59.30
2017-06-20T18:50:51.756Z,60.00
2017-06-20T18:53:26.585Z,60.90
2017-06-20T18:56:06.678Z,60.90
2017-06-20T19:01:40.229Z,63.00
2017-06-20T19:04:20.753Z,63.40
2017-06-20T19:09:58.129Z,65.90
2017-06-20T19:12:34.035Z,67.50
2017-06-20T19:15:03.853Z,68.00
2017-06-20T19:20:24.906Z,69.70
2017-06-20T19:23:11.277Z,68.60
2017-06-20T19:25:41.039Z,68.80
2017-06-20T19:28:20.051Z,70.10
2017-06-20T19:33:55.873Z,74.70
2017-06-20T19:42:03.751Z,77.10
2017-06-20T19:44:41.826Z,77.20
2017-06-20T19:47:28.418Z,81.00
2017-06-20T19:50:11.288Z,82.20
2017-06-20T19:52:44.334Z,82.40
2017-06-20T19:55:30.922Z,82.70
2017-06-20T19:58:13.235Z,83.40
2017-06-20T20:11:55.593Z,82.10
2017-06-20T20:14:26.419Z,84.60
2017-06-20T20:16:56.342Z,86.00
2017-06-20T20:19:28.279Z,86.50
2017-06-20T20:22:01.197Z,87.20
2017-06-20T20:24:32.040Z,87.20
2017-06-20T20:30:09.433Z,84.90
2017-06-20T20:32:53.825Z,86.10
2017-06-20T20:35:26.855Z,87.90
2017-06-20T20:38:17.623Z,88.00
2017-06-20T20:52:00.230Z,89.30
2017-06-20T20:57:33.953Z,89.60
2017-06-20T21:00:21.362Z,90.40
2017-06-20T21:03:11.865Z,90.70
2017-06-20T21:11:34.345Z,91.60
2017-06-20T21:14:09.713Z,92.00
2017-06-20T21:22:19.085Z,92.40
2017-06-20T21:24:51.283Z,92.80
2017-06-20T21:27:27.580Z,93.00
2017-06-20T21:30:07.897Z,93.20
2017-06-20T21:32:41.665Z,93.80
2017-06-20T21:35:16.045Z,94.10
2017-06-20T21:37:45.920Z,94.50
2017-06-20T21:40:32.471Z,94.40
2017-06-20T21:43:22.080Z,94.20
2017-06-20T21:48:45.142Z,94.00
2017-06-20T21:51:19.194Z,94.10
2017-06-20T21:53:50.979Z,94.00
2017-06-20T21:56:20.800Z,94.10
2017-06-20T22:01:36.720Z,94.30
2017-06-20T22:04:08.768Z,94.60
2017-06-20T22:06:54.652Z,94.80
2017-06-20T22:18:16.516Z,95.40
2017-06-20T22:26:41.474Z,95.50
2017-06-20T22:32:22.724Z,96.20
2017-06-20T22:34:59.512Z,96.40
2017-06-20T22:49:02.708Z,96.20
2017-06-20T22:51:36.591Z,96.10
2017-06-20T22:57:08.873Z,96.90
2017-06-20T22:59:52.182Z,96.80
2017-06-20T23:08:17.482Z,97.60
2017-06-20T23:11:00.420Z,97.70
2017-06-20T23:19:13.439Z,97.90
2017-06-20T23:24:52.088Z,98.50
2017-06-20T23:33:12.198Z,98.60
2017-06-20T23:36:01.749Z,98.70
2017-06-20T23:41:34.491Z,98.90
2017-06-20T23:47:14.806Z,99.30
2017-06-20T23:52:48.003Z,99.70
2017-06-20T23:55:32.912Z,99.70
2017-06-20T23:58:17.444Z,99.90
